Time;durP1;ratioP1;P1;durP2;ratioP2;P2;SDS_P1;SDS_P2;PMS_P1;PMS_P2;Temp;Humidity;BMP_temperature;BMP_pressure;BME280_temperature;BME280_humidity;BME280_pressure;Samples;Min_cycle;Max_cycle;Signal;HPM_P1;HPM_P2
2022/04/16 00:01:35;;;;;;;7.77;5.70;;;;;;;9.58;82.02;100481.52;1363638;91;22652;-86
2022/04/16 00:04:02;;;;;;;8.90;6.00;;;;;;;9.61;81.41;100488.70;1379727;88;22325;-85
2022/04/16 00:06:30;;;;;;;6.43;5.13;;;;;;;9.58;81.96;100486.80;1384592;89;21267;-85
2022/04/16 00:08:56;;;;;;;5.73;4.67;;;;;;;9.57;81.97;100491.74;1360961;90;21337;-86
2022/04/16 00:11:23;;;;;;;6.17;5.03;;;;;;;9.54;82.49;100496.81;1361416;91;21405;-84
2022/04/16 00:13:50;;;;;;;7.13;5.37;;;;;;;9.55;81.97;100500.28;1383247;87;21311;-84
2022/04/16 00:16:18;;;;;;;8.13;4.37;;;;;;;9.52;82.44;100503.20;1377200;89;21371;-85
2022/04/16 00:18:45;;;;;;;7.63;5.90;;;;;;;9.49;82.88;100505.18;1376944;89;22174;-84
2022/04/16 00:21:12;;;;;;;7.13;5.03;;;;;;;9.52;82.29;100504.04;1377031;89;21281;-87
2022/04/16 00:23:41;;;;;;;6.97;5.33;;;;;;;9.54;81.90;100502.10;1377325;89;21317;-87
2022/04/16 00:26:12;;;;;;;6.93;5.13;;;;;;;9.60;81.64;100499.39;1380238;90;21316;-87
2022/04/16 00:28:38;;;;;;;7.60;5.50;;;;;;;9.65;80.67;100486.11;1386127;89;22323;-86
2022/04/16 00:31:05;;;;;;;9.57;6.33;;;;;;;9.70;80.19;100469.84;1383425;89;22257;-86
2022/04/16 00:33:33;;;;;;;6.70;5.73;;;;;;;9.75;80.24;100463.63;1400661;87;23139;-87
2022/04/16 00:36:04;;;;;;;8.20;5.43;;;;;;;9.76;80.00;100457.37;1389125;87;21265;-85
2022/04/16 00:38:31;;;;;;;6.97;6.03;;;;;;;9.75;79.83;100462.30;1389027;89;21264;-85
2022/04/16 00:41:00;;;;;;;9.63;5.50;;;;;;;9.65;80.28;100461.50;1389355;89;21368;-85
2022/04/16 00:43:28;;;;;;;7.50;5.60;;;;;;;9.62;80.80;100471.03;1387393;87;21288;-85
2022/04/16 00:45:57;;;;;;;7.67;6.30;;;;;;;9.59;81.14;100472.14;1370095;89;21476;-84
2022/04/16 00:48:24;;;;;;;8.03;6.10;;;;;;;9.58;81.24;100472.27;1392628;88;22313;-85
2022/04/16 00:50:54;;;;;;;6.83;5.63;;;;;;;9.59;81.06;100469.98;1389130;88;21315;-86
2022/04/16 00:53:25;;;;;;;6.40;5.80;;;;;;;9.49;81.55;100461.59;1396118;88;21398;-85
2022/04/16 00:55:51;;;;;;;8.60;6.33;;;;;;;9.49;81.60;100465.55;1385299;87;21465;-86
2022/04/16 00:58:18;;;;;;;8.77;6.63;;;;;;;9.52;81.84;100463.58;1373250;90;22416;-85
2022/04/16 01:00:46;;;;;;;8.37;7.00;;;;;;;9.54;81.78;100465.60;1379262;88;22148;-87
2022/04/16 01:03:13;;;;;;;8.77;6.83;;;;;;;9.57;81.64;100463.51;1376551;89;21467;-87
2022/04/16 01:05:40;;;;;;;9.83;7.80;;;;;;;9.53;82.18;100456.02;1379721;89;21414;-87
2022/04/16 01:08:08;;;;;;;8.10;6.77;;;;;;;9.54;81.99;100454.55;1380233;88;21250;-86
2022/04/16 01:10:35;;;;;;;10.13;7.80;;;;;;;9.52;82.21;100449.05;1382777;89;21543;-87
2022/04/16 01:13:05;;;;;;;9.13;7.43;;;;;;;9.54;82.25;100453.22;1395677;87;21280;-86
2022/04/16 01:15:33;;;;;;;8.35;6.05;;;;;;;9.55;82.50;100448.77;1389233;89;22376;-86
2022/04/16 01:18:05;;;;;;;13.10;8.50;;;;;;;9.58;82.27;100440.09;1393239;88;22247;-86
2022/04/16 01:20:33;;;;;;;8.43;7.33;;;;;;;9.60;82.52;100438.13;1394751;87;22395;-86
2022/04/16 01:23:01;;;;;;;11.05;9.03;;;;;;;9.56;82.68;100438.07;1396016;87;21374;-86
2022/04/16 01:25:32;;;;;;;11.77;9.37;;;;;;;9.62;82.72;100432.22;1395436;87;21279;-87
2022/04/16 01:27:58;;;;;;;10.20;9.03;;;;;;;9.69;82.33;100433.80;1383860;88;22248;-86
2022/04/16 01:30:25;;;;;;;10.00;8.83;;;;;;;9.74;82.36;100439.50;1370155;89;22351;-86
2022/04/16 01:32:52;;;;;;;9.70;8.23;;;;;;;9.76;82.28;100437.56;1394336;88;22173;-89
2022/04/16 01:35:20;;;;;;;11.30;9.13;;;;;;;9.75;82.32;100434.55;1401865;87;21329;-89
2022/04/16 01:37:47;;;;;;;12.30;9.70;;;;;;;9.81;82.42;100442.40;1406947;87;21271;-88
2022/04/16 01:40:15;;;;;;;11.73;9.30;;;;;;;9.83;82.30;100443.92;1407784;86;21313;-88
2022/04/16 01:42:46;;;;;;;12.63;10.10;;;;;;;9.84;82.40;100448.26;1407280;87;21219;-89
2022/04/16 01:45:18;;;;;;;12.18;9.93;;;;;;;9.83;82.31;100445.25;1407564;86;22217;-89
2022/04/16 01:47:45;;;;;;;12.63;10.70;;;;;;;9.86;82.24;100451.57;1406475;86;21293;-86
2022/04/16 01:50:12;;;;;;;12.07;9.77;;;;;;;9.93;81.94;100447.89;1406969;86;21315;-87
2022/04/16 01:52:46;;;;;;;11.33;9.57;;;;;;;9.94;82.13;100453.02;1406808;86;21352;-86
2022/04/16 01:55:11;;;;;;;13.03;9.33;;;;;;;9.96;81.73;100441.48;1385681;89;21398;-85
2022/04/16 01:57:39;;;;;;;12.90;8.57;;;;;;;9.99;81.50;100439.38;1386562;89;21369;-85
2022/04/16 02:00:09;;;;;;;12.80;9.80;;;;;;;10.00;81.36;100437.07;1386227;88;21358;-85
2022/04/16 02:02:37;;;;;;;13.20;9.28;;;;;;;10.07;80.97;100441.29;1391990;90;21271;-86
2022/04/16 02:05:06;;;;;;;12.63;10.37;;;;;;;10.08;81.30;100440.33;1393819;87;21307;-86
2022/04/16 02:07:33;;;;;;;13.73;9.10;;;;;;;10.09;80.87;100437.53;1393465;88;22285;-86
2022/04/16 02:10:02;;;;;;;14.50;10.73;;;;;;;10.13;80.88;100435.45;1393785;88;22210;-85
2022/04/16 02:12:29;;;;;;;10.70;8.13;;;;;;;10.12;80.84;100436.41;1393669;87;22321;-85
2022/04/16 02:14:56;;;;;;;10.97;8.70;;;;;;;10.11;81.09;100438.72;1393468;88;21405;-86
2022/04/16 02:17:24;;;;;;;12.30;9.57;;;;;;;10.14;81.08;100445.87;1393904;88;21474;-85
2022/04/16 02:19:51;;;;;;;12.70;9.53;;;;;;;10.14;81.22;100443.72;1386016;89;21323;-85
2022/04/16 02:22:18;;;;;;;11.20;8.43;;;;;;;10.16;82.23;100443.09;1384736;88;21331;-84
2022/04/16 02:24:46;;;;;;;10.73;7.90;;;;;;;10.09;83.36;100447.27;1407777;87;22172;-84
2022/04/16 02:27:13;;;;;;;10.63;9.53;;;;;;;10.04;83.39;100438.94;1407439;86;21263;-84
2022/04/16 02:29:40;;;;;;;10.73;9.17;;;;;;;10.01;83.82;100437.91;1407355;86;22253;-85
2022/04/16 02:32:08;;;;;;;10.50;8.33;;;;;;;9.98;84.34;100428.94;1405320;86;22216;-85
2022/04/16 02:34:35;;;;;;;12.57;9.17;;;;;;;9.94;84.53;100416.01;1408121;86;21434;-86
2022/04/16 02:37:03;;;;;;;10.70;8.87;;;;;;;9.90;84.44;100422.57;1374558;89;22726;-85
2022/04/16 02:39:30;;;;;;;11.27;9.53;;;;;;;9.88;85.75;100425.84;1373149;89;21533;-85
2022/04/16 02:41:57;;;;;;;13.83;9.27;;;;;;;9.83;86.57;100425.42;1316785;94;22418;-86
2022/04/16 02:47:10;;;;;;;13.37;9.70;;;;;;;9.70;88.02;100416.98;1368139;90;21332;-85
2022/04/16 02:49:39;;;;;;;11.83;10.10;;;;;;;9.68;88.39;100412.32;1368479;90;21325;-87
2022/04/16 02:52:07;;;;;;;13.37;10.70;;;;;;;9.63;88.80;100410.58;1368629;90;22234;-87
2022/04/16 02:54:36;;;;;;;12.03;10.33;;;;;;;9.59;88.93;100405.25;1368645;90;22160;-86
2022/04/16 02:57:04;;;;;;;11.73;8.97;;;;;;;9.61;88.98;100410.75;1368161;90;21229;-86
2022/04/16 02:59:35;;;;;;;13.87;9.83;;;;;;;9.57;89.07;100407.19;1368932;90;21376;-86
2022/04/16 03:02:02;;;;;;;;;;;;;;;9.58;89.03;100404.88;1334061;93;21386;-86
2022/04/16 03:04:29;;;;;;;15.03;10.93;;;;;;;9.55;89.18;100401.20;1376486;90;20351;-86
2022/04/16 03:06:57;;;;;;;14.27;9.63;;;;;;;9.55;89.04;100402.53;1367759;90;21487;-87
2022/04/16 03:09:24;;;;;;;13.37;9.40;;;;;;;9.57;89.18;100408.52;1375648;89;21552;-86
2022/04/16 03:11:51;;;;;;;14.20;11.23;;;;;;;9.54;89.07;100400.88;1376357;89;22414;-88
2022/04/16 03:19:50;;;;;;;11.30;8.07;;;;;;;9.49;90.26;100400.82;1329955;93;21342;-88
2022/04/16 03:22:17;;;;;;;13.13;10.17;;;;;;;9.46;90.74;100405.53;1369678;89;21251;-85
2022/04/16 03:24:44;;;;;;;15.00;10.60;;;;;;;9.44;90.58;100405.69;1375867;89;21361;-86
2022/04/16 03:27:11;;;;;;;12.40;9.07;;;;;;;9.43;90.70;100400.04;1375705;89;22204;-85
2022/04/16 03:29:39;;;;;;;10.90;8.83;;;;;;;9.44;90.44;100396.44;1373383;90;21413;-87
2022/04/16 03:32:07;;;;;;;11.43;8.53;;;;;;;9.43;90.88;100403.17;1368633;89;22371;-86
2022/04/16 03:34:37;;;;;;;10.50;8.23;;;;;;;9.40;90.74;100399.00;1368131;90;22168;-86
2022/04/16 03:37:05;;;;;;;12.67;9.50;;;;;;;9.42;90.84;100407.63;1376559;89;21535;-86
2022/04/16 03:39:32;;;;;;;12.83;9.03;;;;;;;9.43;90.93;100408.45;1338817;92;21255;-86
2022/04/16 03:41:59;;;;;;;9.20;8.20;;;;;;;9.41;91.16;100419.67;1357065;91;22189;-86
2022/04/16 03:44:26;;;;;;;9.90;7.50;;;;;;;9.41;91.09;100426.27;1371221;90;22307;-86
2022/04/16 03:46:53;;;;;;;11.50;8.03;;;;;;;9.38;91.40;100435.31;1352539;92;21316;-86
2022/04/16 03:49:20;;;;;;;7.97;6.57;;;;;;;9.37;91.80;100440.72;1373521;90;21419;-86
2022/04/16 03:51:47;;;;;;;8.03;7.10;;;;;;;9.33;92.32;100440.66;1359079;90;21238;-86
2022/04/16 03:59:59;;;;;;;9.70;6.77;;;;;;;9.31;92.99;100442.11;1373699;90;21243;-86
2022/04/16 04:02:31;;;;;;;9.23;6.07;;;;;;;9.26;93.29;100449.61;1374898;90;21265;-86
2022/04/16 04:04:58;;;;;;;8.90;6.57;;;;;;;9.18;94.16;100444.20;1375825;90;21331;-85
2022/04/16 04:07:25;;;;;;;6.40;5.67;;;;;;;9.18;94.07;100454.77;1360536;89;21413;-86
2022/04/16 04:09:52;;;;;;;8.53;5.83;;;;;;;9.22;93.74;100449.55;1368105;90;21524;-85
2022/04/16 04:12:19;;;;;;;7.10;5.80;;;;;;;9.22;94.10;100442.95;1338622;92;21462;-85
2022/04/16 04:14:47;;;;;;;6.00;4.53;;;;;;;9.15;93.96;100447.09;1365829;90;21458;-86
2022/04/16 04:17:15;;;;;;;6.10;4.90;;;;;;;9.14;93.78;100446.27;1392855;88;21423;-86
2022/04/16 04:19:45;;;;;;;6.13;4.47;;;;;;;9.18;93.68;100442.88;1390701;88;21295;-85
2022/04/16 04:22:16;;;;;;;4.27;3.73;;;;;;;9.16;93.18;100443.50;1386371;89;21523;-85
2022/04/16 04:24:45;;;;;;;5.33;4.53;;;;;;;9.16;93.46;100446.14;1389201;88;22245;-85
2022/04/16 04:27:12;;;;;;;6.57;4.50;;;;;;;9.21;92.78;100447.89;1387659;87;22210;-86
2022/04/16 04:29:41;;;;;;;6.20;4.97;;;;;;;9.26;92.81;100455.75;1385952;88;22395;-85
2022/04/16 04:32:08;;;;;;;12.40;6.27;;;;;;;9.28;92.73;100450.31;1386098;88;21330;-87
2022/04/16 04:34:35;;;;;;;6.60;5.33;;;;;;;9.27;92.98;100457.89;1395012;88;21315;-86
2022/04/16 04:37:03;;;;;;;5.47;4.33;;;;;;;9.29;92.99;100445.36;1396925;87;21530;-87
2022/04/16 04:39:31;;;;;;;6.03;4.27;;;;;;;9.25;92.74;100453.23;1394464;87;21287;-85
2022/04/16 04:41:58;;;;;;;4.60;4.10;;;;;;;9.26;92.86;100449.61;1369736;89;21291;-85
2022/04/16 04:44:25;;;;;;;8.53;4.97;;;;;;;9.28;92.68;100450.31;1351067;91;21282;-86
2022/04/16 04:46:53;;;;;;;9.20;4.87;;;;;;;9.35;92.48;100455.86;1369626;90;22311;-87
2022/04/16 04:49:20;;;;;;;5.90;4.03;;;;;;;9.39;92.14;100458.09;1385569;90;22343;-86
2022/04/16 04:51:47;;;;;;;6.83;4.17;;;;;;;9.38;92.07;100459.08;1386549;89;22263;-86
2022/04/16 04:54:15;;;;;;;8.03;5.03;;;;;;;9.42;91.77;100460.45;1385864;89;21989;-85
2022/04/16 04:56:42;;;;;;;6.17;3.93;;;;;;;9.42;90.98;100463.59;1392508;88;21376;-85
2022/04/16 04:59:09;;;;;;;4.50;3.63;;;;;;;9.46;90.69;100469.76;1393520;88;21279;-86
2022/04/16 05:01:36;;;;;;;6.00;3.70;;;;;;;9.41;90.41;100472.50;1391854;87;21309;-87
2022/04/16 05:04:04;;;;;;;4.70;4.10;;;;;;;9.38;90.02;100474.93;1394455;88;22292;-87
2022/04/16 05:06:31;;;;;;;5.20;4.20;;;;;;;9.39;90.52;100473.12;1393063;88;21353;-88
2022/04/16 05:08:58;;;;;;;6.73;4.57;;;;;;;9.40;90.54;100474.77;1393154;87;22270;-88
2022/04/16 05:11:25;;;;;;;5.67;4.17;;;;;;;9.37;90.45;100470.60;1399828;87;21345;-87
2022/04/16 05:13:52;;;;;;;5.40;4.67;;;;;;;9.38;90.56;100479.36;1400191;87;21301;-85
2022/04/16 05:16:19;;;;;;;6.43;5.20;;;;;;;9.39;90.46;100481.05;1399976;88;21263;-86
2022/04/16 05:18:46;;;;;;;5.67;4.67;;;;;;;9.35;90.69;100477.85;1399776;87;21279;-85
2022/04/16 05:21:13;;;;;;;6.93;4.23;;;;;;;9.34;90.95;100475.34;1399517;88;21286;-85
2022/04/16 05:23:41;;;;;;;6.07;4.87;;;;;;;9.35;90.66;100483.14;1397512;89;21330;-85
2022/04/16 05:26:10;;;;;;;5.00;4.27;;;;;;;9.36;90.48;100476.87;1400592;87;21345;-84
2022/04/16 05:28:38;;;;;;;5.67;4.70;;;;;;;9.33;90.00;100486.39;1400625;88;21315;-84
2022/04/16 05:31:07;;;;;;;9.37;5.27;;;;;;;9.38;89.55;100488.14;1391338;88;21302;-86
2022/04/16 05:36:19;;;;;;;6.33;4.60;;;;;;;9.39;89.73;100488.47;1386608;88;21560;-84
2022/04/16 05:38:47;;;;;;;6.87;4.93;;;;;;;9.41;89.49;100487.03;1400257;88;21308;-88
2022/04/16 05:41:14;;;;;;;5.23;4.50;;;;;;;9.40;89.57;100486.17;1408537;87;21308;-84
2022/04/16 05:43:42;;;;;;;5.93;4.93;;;;;;;9.41;89.76;100497.11;1400089;87;21302;-85
2022/04/16 05:46:09;;;;;;;7.03;5.20;;;;;;;9.44;89.55;100496.83;1385285;89;22013;-84
2022/04/16 05:48:36;;;;;;;7.47;5.90;;;;;;;9.47;89.60;100494.40;1384666;89;21272;-84
2022/04/16 05:51:04;;;;;;;6.87;4.50;;;;;;;9.46;89.13;100500.63;1396895;89;21441;-84
2022/04/16 05:53:31;;;;;;;9.97;6.53;;;;;;;9.37;88.87;100510.22;1400142;87;21360;-82
2022/04/16 05:55:59;;;;;;;6.33;5.00;;;;;;;9.43;89.57;100508.84;1399860;88;21353;-83
2022/04/16 05:58:27;;;;;;;9.50;7.10;;;;;;;9.39;89.61;100508.78;1399706;88;21264;-84
2022/04/16 06:00:55;;;;;;;8.07;6.43;;;;;;;9.39;89.43;100516.21;1391629;88;21287;-85
2022/04/16 06:03:22;;;;;;;7.40;6.07;;;;;;;9.40;89.54;100512.59;1395411;87;21427;-84
2022/04/16 06:05:52;;;;;;;15.33;7.60;;;;;;;9.38;89.82;100519.84;1339273;92;21243;-85
2022/04/16 06:08:19;;;;;;;8.37;6.33;;;;;;;9.37;89.76;100519.47;1351628;91;21579;-85
2022/04/16 06:10:47;;;;;;;7.63;6.27;;;;;;;9.30;90.27;100519.68;1358135;90;21498;-86
2022/04/16 06:13:14;;;;;;;13.87;8.43;;;;;;;9.35;90.68;100529.81;1340235;92;21457;-85
2022/04/16 06:15:42;;;;;;;10.10;6.77;;;;;;;9.34;91.57;100534.27;1338689;93;21479;-85
2022/04/16 06:18:10;;;;;;;9.27;7.00;;;;;;;9.23;92.00;100526.47;1352530;91;21436;-85
2022/04/16 06:20:38;;;;;;;9.67;8.47;;;;;;;9.18;92.73;100540.59;1353097;91;21316;-86
2022/04/16 06:23:07;;;;;;;10.73;7.70;;;;;;;9.19;92.72;100536.97;1388393;89;21472;-86
2022/04/16 06:25:34;;;;;;;8.93;7.47;;;;;;;9.20;93.50;100542.59;1384422;88;21428;-85
2022/04/16 06:28:02;;;;;;;9.83;7.80;;;;;;;9.16;92.41;100549.13;1384496;89;22255;-85
2022/04/16 06:30:30;;;;;;;8.03;6.97;;;;;;;9.14;92.91;100552.37;1384143;88;22322;-85
2022/04/16 06:32:57;;;;;;;9.40;6.93;;;;;;;9.09;92.55;100546.66;1382636;89;21524;-85
2022/04/16 06:35:24;;;;;;;10.20;7.20;;;;;;;9.12;92.59;100554.30;1376088;89;21435;-83
2022/04/16 06:37:51;;;;;;;8.10;6.77;;;;;;;9.15;92.17;100552.71;1339041;92;21639;-83
2022/04/16 06:40:19;;;;;;;8.90;6.50;;;;;;;9.17;92.32;100561.34;1362017;91;21324;-83
2022/04/16 06:42:46;;;;;;;7.23;5.53;;;;;;;9.14;92.64;100560.30;1366377;90;22338;-84
2022/04/16 06:45:13;;;;;;;10.00;7.23;;;;;;;9.12;92.97;100570.15;1355124;91;21295;-83
2022/04/16 06:47:41;;;;;;;8.43;5.50;;;;;;;9.09;93.50;100562.04;1341578;92;21333;-83
2022/04/16 06:50:09;;;;;;;7.40;6.10;;;;;;;9.12;92.66;100563.55;1385885;89;21308;-83
2022/04/16 06:52:37;;;;;;;7.50;5.50;;;;;;;9.11;92.45;100561.89;1393649;88;21389;-84
2022/04/16 06:55:06;;;;;;;7.17;5.30;;;;;;;9.03;91.62;100576.61;1393650;88;21272;-84
2022/04/16 06:57:33;;;;;;;6.27;5.07;;;;;;;9.11;91.92;100579.05;1393891;87;21316;-83
2022/04/16 07:00:01;;;;;;;5.80;4.93;;;;;;;9.03;91.35;100571.79;1388864;87;21285;-85
2022/04/16 07:02:28;;;;;;;6.40;4.70;;;;;;;9.08;90.97;100573.55;1393149;87;21264;-84
2022/04/16 07:04:55;;;;;;;5.70;4.80;;;;;;;9.07;91.09;100580.30;1386229;87;21257;-84
2022/04/16 07:07:22;;;;;;;5.63;4.33;;;;;;;9.11;90.97;100578.56;1371152;90;21524;-81
2022/04/16 07:09:49;;;;;;;4.20;3.70;;;;;;;9.12;91.25;100580.25;1385814;89;21486;-81
2022/04/16 07:12:18;;;;;;;6.77;4.83;;;;;;;9.14;91.44;100583.57;1388373;89;21330;-79
2022/04/16 07:14:45;;;;;;;5.00;4.17;;;;;;;9.21;92.83;100581.25;1399001;87;21405;-79
2022/04/16 07:17:12;;;;;;;6.40;4.73;;;;;;;9.29;91.45;100583.19;1396665;88;21484;-80
2022/04/16 07:19:39;;;;;;;4.70;3.93;;;;;;;9.38;91.45;100580.59;1399605;88;21478;-79
2022/04/16 07:22:07;;;;;;;5.57;3.93;;;;;;;9.40;90.50;100582.59;1398794;87;21293;-79
2022/04/16 07:24:38;;;;;;;4.90;3.47;;;;;;;9.48;91.32;100585.39;1399570;87;21249;-78
2022/04/16 07:27:05;;;;;;;5.00;3.97;;;;;;;9.58;90.31;100592.48;1396924;87;21339;-79
2022/04/16 07:29:33;;;;;;;3.50;3.10;;;;;;;9.57;89.92;100590.34;1387814;89;21398;-79
2022/04/16 07:32:00;;;;;;;5.43;4.13;;;;;;;9.67;90.76;100593.02;1391242;87;21225;-79
2022/04/16 07:34:27;;;;;;;5.20;3.57;;;;;;;9.64;89.44;100593.29;1388264;89;21401;-77
2022/04/16 07:36:54;;;;;;;7.33;4.07;;;;;;;9.69;89.79;100600.30;1387723;88;21267;-86
2022/04/16 07:39:35;;;;;;;5.87;5.03;;;;;;;9.64;89.11;100599.90;1383031;88;21339;-86
2022/04/16 07:42:02;;;;;;;4.05;3.65;;;;;;;9.71;89.55;100602.33;1393648;87;22777;-85
2022/04/16 07:44:29;;;;;;;5.07;3.67;;;;;;;9.62;89.95;100601.83;1399913;88;21381;-86
2022/04/16 07:46:56;;;;;;;3.73;2.80;;;;;;;9.62;88.76;100611.08;1407278;86;21286;-87
2022/04/16 07:49:23;;;;;;;7.27;3.83;;;;;;;9.61;87.60;100605.42;1404280;86;21308;-86
2022/04/16 07:51:50;;;;;;;2.90;2.40;;;;;;;9.71;88.76;100608.93;1386688;88;21384;-86
2022/04/16 07:54:19;;;;;;;4.73;2.60;;;;;;;9.76;87.88;100605.39;1385037;87;21535;-86
2022/04/16 07:56:46;;;;;;;3.13;2.53;;;;;;;9.85;88.48;100609.84;1386290;89;22152;-86
2022/04/16 07:59:19;;;;;;;2.97;1.97;;;;;;;9.85;87.45;100610.34;1387407;88;21279;-86
2022/04/16 08:01:46;;;;;;;2.60;2.20;;;;;;;9.86;87.12;100612.83;1407033;86;21285;-87
2022/04/16 08:04:13;;;;;;;2.87;1.93;;;;;;;9.93;86.55;100614.45;1395977;86;21353;-87
2022/04/16 08:06:40;;;;;;;1.70;1.23;;;;;;;10.05;86.64;100608.53;1387030;88;22342;-87
2022/04/16 08:09:07;;;;;;;3.43;2.53;;;;;;;10.06;85.92;100610.19;1396634;89;21330;-87
2022/04/16 08:11:34;;;;;;;2.20;1.80;;;;;;;10.20;86.28;100608.94;1407878;86;21322;-87
2022/04/16 08:14:02;;;;;;;2.57;1.97;;;;;;;10.26;84.94;100607.88;1406265;86;21308;-87
2022/04/16 08:16:30;;;;;;;1.80;1.50;;;;;;;10.29;83.35;100606.30;1393448;87;21397;-87
2022/04/16 08:18:57;;;;;;;1.77;1.50;;;;;;;10.39;84.66;100609.78;1396059;87;21389;-87
2022/04/16 08:21:26;;;;;;;3.03;1.73;;;;;;;10.48;83.75;100603.30;1407510;86;21315;-87
2022/04/16 08:24:03;;;;;;;3.00;2.23;;;;;;;10.62;83.99;100608.14;1395587;87;21487;-90
2022/04/16 08:26:25;;;;;;;3.07;2.13;;;;;;;10.71;84.34;100609.91;1356595;91;22352;-88
2022/04/16 08:28:52;;;;;;;2.00;1.50;;;;;;;10.88;83.68;100607.50;1349482;91;22218;-88
2022/04/16 08:31:19;;;;;;;2.13;1.63;;;;;;;10.95;83.86;100605.93;1351393;91;22256;-90
2022/04/16 08:33:46;;;;;;;1.67;1.13;;;;;;;10.87;81.10;100604.48;1406094;87;22173;-92
2022/04/16 08:36:13;;;;;;;1.17;1.00;;;;;;;10.92;80.67;100608.87;1397036;86;23349;-93
2022/04/16 08:38:41;;;;;;;2.03;1.30;;;;;;;10.74;78.69;100605.66;1379203;88;21319;-91
2022/04/16 08:41:09;;;;;;;2.30;1.50;;;;;;;10.84;80.95;100602.47;1391423;88;21455;-91
2022/04/16 08:43:38;;;;;;;2.17;1.30;;;;;;;10.74;79.71;100600.36;1381478;89;21420;-89
2022/04/16 08:46:07;;;;;;;1.40;1.10;;;;;;;10.83;79.49;100607.92;1393296;88;21208;-89
2022/04/16 08:48:36;;;;;;;1.10;0.90;;;;;;;10.87;80.25;100611.94;1393447;88;22225;-93
2022/04/16 08:51:03;;;;;;;1.87;1.50;;;;;;;10.74;79.24;100604.33;1370015;91;21268;-89
2022/04/16 08:53:30;;;;;;;1.67;1.53;;;;;;;10.93;80.90;100609.20;1367233;90;21413;-89
2022/04/16 08:55:57;;;;;;;4.40;1.70;;;;;;;10.96;80.80;100600.50;1374324;89;21273;-90
2022/04/16 08:58:24;;;;;;;1.23;0.97;;;;;;;10.99;78.28;100604.64;1371598;90;21251;-90
2022/04/16 09:00:52;;;;;;;1.07;0.70;;;;;;;11.11;80.16;100611.44;1354655;90;21366;-91
2022/04/16 09:03:19;;;;;;;1.13;0.70;;;;;;;10.94;76.25;100606.92;1353072;91;21404;-91
2022/04/16 09:05:46;;;;;;;1.43;1.33;;;;;;;11.01;77.68;100614.61;1359311;94;21244;-89
2022/04/16 09:08:13;;;;;;;1.63;0.80;;;;;;;11.15;77.30;100615.45;1348889;90;22168;-96
2022/04/16 09:10:43;;;;;;;0.90;0.73;;;;;;;11.17;75.85;100612.67;1379813;90;21375;-94
2022/04/16 09:13:09;;;;;;;1.47;1.37;;;;;;;11.34;74.99;100616.36;1360862;89;21311;-94
2022/04/16 09:15:37;;;;;;;1.07;0.70;;;;;;;11.46;75.48;100620.46;1375951;89;21246;-91
2022/04/16 09:18:07;;;;;;;0.73;0.70;;;;;;;11.47;75.01;100615.49;1392943;89;21244;-91
2022/04/16 09:20:39;;;;;;;2.33;0.80;;;;;;;11.45;74.29;100610.83;1389308;87;21376;-92
2022/04/16 09:23:20;;;;;;;1.13;0.80;;;;;;;11.55;74.75;100618.73;1384636;88;21257;-92
2022/04/16 09:25:49;;;;;;;1.50;0.73;;;;;;;11.59;72.84;100607.66;1385149;89;21339;-90
2022/04/16 09:28:21;;;;;;;1.03;0.80;;;;;;;11.54;73.71;100620.56;1388395;89;21309;-89
2022/04/16 09:30:51;;;;;;;0.93;0.70;;;;;;;11.67;73.89;100613.05;1390298;88;21270;-92
2022/04/16 09:33:19;;;;;;;1.27;0.73;;;;;;;11.57;73.75;100608.83;1390594;87;21215;-93
2022/04/16 09:35:47;;;;;;;1.80;1.00;;;;;;;11.67;73.69;100617.03;1391582;87;21355;-92
2022/04/16 09:38:14;;;;;;;1.30;0.87;;;;;;;11.58;72.35;100615.28;1391027;88;21464;-90
2022/04/16 09:40:47;;;;;;;0.60;0.50;;;;;;;11.62;72.24;100609.19;1387207;88;22197;-84
2022/04/16 09:43:15;;;;;;;3.07;0.60;;;;;;;11.66;70.58;100623.83;1391840;88;21416;-92
2022/04/16 09:45:43;;;;;;;1.47;1.00;;;;;;;11.47;71.55;100608.87;1373492;89;21294;-93
2022/04/16 09:48:14;;;;;;;1.40;0.90;;;;;;;11.44;71.47;100622.42;1386854;89;21398;-90
2022/04/16 09:50:43;;;;;;;0.53;0.50;;;;;;;11.57;72.46;100614.95;1388224;87;21491;-91
2022/04/16 09:53:11;;;;;;;1.37;0.73;;;;;;;11.52;70.92;100616.72;1367080;90;21361;-90
2022/04/16 09:55:41;;;;;;;1.53;0.70;;;;;;;11.64;72.23;100618.66;1353205;91;21258;-92
2022/04/16 09:58:09;;;;;;;1.10;0.70;;;;;;;11.61;70.89;100616.81;1368961;91;22174;-89
2022/04/16 10:00:38;;;;;;;2.47;0.77;;;;;;;11.68;72.04;100629.33;1393461;88;21427;-89
2022/04/16 10:03:07;;;;;;;1.10;1.00;;;;;;;11.80;72.18;100627.78;1391594;88;21387;-88
2022/04/16 10:05:35;;;;;;;1.03;0.80;;;;;;;12.23;71.09;100616.90;1386509;89;21309;-90
2022/04/16 10:08:05;;;;;;;0.80;0.57;;;;;;;12.29;69.66;100626.93;1393421;88;21294;-90
2022/04/16 10:10:40;;;;;;;25.88;1.42;;;;;;;12.02;68.63;100622.53;1387550;89;21463;-91
2022/04/16 10:13:07;;;;;;;1.03;0.60;;;;;;;11.78;68.61;100624.44;1387066;89;21487;-89
2022/04/16 10:16:01;;;;;;;0.70;0.60;;;;;;;11.92;69.88;100637.21;1385540;89;21206;-91
2022/04/16 10:18:31;;;;;;;1.07;0.80;;;;;;;11.50;68.55;100644.34;1388460;90;21339;-91
2022/04/16 10:21:00;;;;;;;1.37;1.00;;;;;;;11.74;68.65;100626.07;1382694;89;21296;-89
2022/04/16 10:23:32;;;;;;;0.93;0.70;;;;;;;11.96;68.30;100641.22;1383622;89;21294;-90
2022/04/16 10:26:11;;;;;;;0.40;0.40;;;;;;;12.17;67.89;100636.45;1385516;89;21375;-92
2022/04/16 10:28:46;;;;;;;0.83;0.50;;;;;;;12.13;67.52;100648.84;1386317;89;21257;-90
2022/04/16 10:31:20;;;;;;;2.10;0.70;;;;;;;11.80;65.35;100647.17;1390314;90;21507;-91
2022/04/16 10:34:11;;;;;;;1.53;0.50;;;;;;;11.67;66.57;100646.20;1393750;87;21549;-92
2022/04/16 10:36:50;;;;;;;1.17;1.07;;;;;;;11.73;67.49;100637.64;1399656;88;21200;-93
2022/04/16 10:39:21;;;;;;;1.00;0.63;;;;;;;11.73;68.63;100646.92;1404335;86;21472;-93
2022/04/16 10:41:58;;;;;;;;;;;;;;;11.51;66.72;100641.56;1385763;88;22285;-91
2022/04/16 10:44:26;;;;;;;0.70;0.63;;;;;;;11.29;66.47;100644.11;1382150;88;20288;-92
2022/04/16 10:46:54;;;;;;;0.70;0.70;;;;;;;11.37;66.15;100650.50;1381987;89;22296;-92
2022/04/16 10:49:24;;;;;;;0.87;0.60;;;;;;;11.40;66.00;100652.86;1380810;88;22151;-93
2022/04/16 10:51:55;;;;;;;0.88;0.68;;;;;;;11.26;65.38;100652.85;1387128;89;21426;-91
2022/04/16 10:54:32;;;;;;;;;;;;;;;11.28;67.13;100647.75;1391745;88;22711;-93
2022/04/16 10:57:01;;;;;;;0.70;0.53;;;;;;;11.40;66.91;100660.81;1387533;90;20222;-93
2022/04/16 10:59:45;;;;;;;0.77;0.50;;;;;;;11.45;65.72;100653.23;1387346;88;21258;-94
2022/04/16 11:02:26;;;;;;;0.83;0.70;;;;;;;11.47;65.08;100662.70;1386612;88;21265;-95
2022/04/16 11:05:09;;;;;;;1.07;0.97;;;;;;;11.48;64.84;100667.05;1385085;88;21405;-93
2022/04/16 11:07:38;;;;;;;1.53;1.07;;;;;;;11.42;65.04;100664.13;1385712;88;21371;-92
2022/04/16 11:10:11;;;;;;;0.87;0.67;;;;;;;11.56;65.74;100672.08;1397442;88;21310;-96
2022/04/16 11:12:39;;;;;;;0.60;0.60;;;;;;;11.49;64.05;100675.83;1373112;90;22711;-93
2022/04/16 11:15:11;;;;;;;2.30;0.70;;;;;;;11.53;65.69;100677.18;1385487;88;21295;-94
2022/04/16 11:17:38;;;;;;;0.83;0.77;;;;;;;11.38;63.06;100678.17;1385622;89;21406;-95
2022/04/16 11:20:07;;;;;;;3.07;0.83;;;;;;;11.41;62.88;100687.15;1385374;88;21265;-95
2022/04/16 11:22:34;;;;;;;0.67;0.60;;;;;;;11.46;64.73;100681.42;1384614;88;21325;-91
2022/04/16 11:25:07;;;;;;;0.47;0.40;;;;;;;11.34;63.44;100710.42;1385420;88;21273;-94
2022/04/16 11:35:59;;;;;;;1.80;0.50;;;;;;;11.15;62.46;100690.95;1385464;88;21452;-94
2022/04/16 11:38:28;;;;;;;;;;;;;;;11.62;63.56;100684.24;1388322;88;22219;-93
2022/04/16 11:40:59;;;;;;;0.90;0.70;;;;;;;11.80;61.88;100683.47;1387755;88;20247;-90
2022/04/16 11:43:30;;;;;;;2.10;0.70;;;;;;;11.78;62.17;100684.94;1373811;90;21347;-93
2022/04/16 11:46:01;;;;;;;1.73;0.50;;;;;;;11.88;62.43;100674.28;1388030;88;21288;-94
2022/04/16 11:48:33;;;;;;;1.07;0.83;;;;;;;11.55;60.57;100689.81;1388266;88;21480;-95
2022/04/16 11:51:01;;;;;;;5.97;0.67;;;;;;;11.59;61.71;100683.22;1394168;88;21332;-92
2022/04/16 11:53:28;;;;;;;0.67;0.50;;;;;;;11.88;61.53;100677.80;1380131;89;21385;-95
2022/04/16 11:55:57;;;;;;;6.17;0.90;;;;;;;12.12;59.94;100683.83;1400348;88;21274;-93
2022/04/16 11:58:28;;;;;;;0.83;0.60;;;;;;;11.94;59.16;100684.31;1400698;88;21355;-95
2022/04/16 12:00:55;;;;;;;7.67;1.00;;;;;;;12.26;58.88;100675.00;1401369;88;21326;-96